05:33
Airports
History
Links
Donate
Help keep this website running!
PayPal
Bitcoin
Information on this page is community maintained and may be outdated or inaccurate and is intended for reference only or PC simulator navigating.
Always use approved charts for navigating.
RKSG
A 511Edited 25-Nov-2012
A 511 (RKSG)
Pyeongtaek-si, Gyeonggi-do, Korea, Republic of (451)
(C)6
Lat/Lng:36° 57' 43.97" N / 127° 1' 51.86" E
36.962213 / 127.031071
Elevation:51'ft 16mMSL
ID / ICAO:RKSG
Runways:1
Longest:(14-32) 2,494.5m 8,184ft Asphalt
Airport use:Military,
Controlled:Yes
Distance To
Airport ID:
Airport Radio Frequencies
ATIS: 108.2
Ground: 119.5
Tower: 122.5
Approach: 127.9
Nearby VORs <50NM
Nearby NDBs
METARUpdated 05-30-17 04:58 GMT
Altimeter: 29.81
Visibility: 6.0 statute miles
Wind: 11 knots (280°)
Temp: 29°c 84°f
Humidity: 30.7%

METAR: RKSG 300458Z 28011KT 6SM HZ FEW120 SCT200 29/10 A2981 RMK AO2A SLP097 T02900095 $

(Powered by phpweather)
Runway 14 / 32
Dimensions:2494.5 x 45.7m 8184' x 150'ft
Surface:Asphalt
Edge Lights:High intensity
Runway 14 [A]Runway 32 [B]
Heading:131°TH 311°TH
Lat:
Lng:
36° 58' 10.83"N
127° 1' 13.88"E
36° 57' 17.1"N
127° 2' 29.83"E
User Notes and Comments
Google Map
Nearby Airports
(C) OSAN AB 8.9 NM
RKSO (WX) N 359°
(C) SUWON 18.8 NM
RKSW (WX) N 356°
(C) G 501 24.8 NM
RK52 NNE 25°
(C) G 510 29.4 NM
RKRN NE 56°
(U) G 505 30.7 NM
RKUC SSE 151°
(C) CHEONGJU INTL 30.9 NM
RKTU (WX) ESE 123°
4 G 526 33.2 NM
RK50 SW 218°
VFR Chart
Flight Planning at SkyVector.com